createdAt,value
2023-03-02T00:02:00.182Z,99960.98
2023-03-02T00:04:58.743Z,99963.77
2023-03-02T00:07:32.768Z,99958.40
2023-03-02T00:10:03.520Z,99951.45
2023-03-02T00:12:33.364Z,99950.39
2023-03-02T00:15:01.676Z,99951.78
2023-03-02T00:17:29.694Z,99952.14
2023-03-02T00:20:11.807Z,99950.95
2023-03-02T00:22:45.081Z,99947.83
2023-03-02T00:25:15.418Z,99948.52
2023-03-02T00:27:43.891Z,99947.14
2023-03-02T00:30:16.590Z,99945.24
2023-03-02T00:32:45.862Z,99938.48
2023-03-02T00:35:13.776Z,99933.61
2023-03-02T00:37:43.447Z,99937.92
2023-03-02T00:40:11.873Z,99938.63
2023-03-02T00:42:40.121Z,99938.46
2023-03-02T00:45:08.556Z,99935.53
2023-03-02T00:47:37.467Z,99931.71
2023-03-02T00:50:07.003Z,99928.61
2023-03-02T00:52:35.597Z,99923.21
2023-03-02T00:55:03.764Z,99920.09
2023-03-02T00:57:31.622Z,99920.62
2023-03-02T01:00:02.019Z,99916.27
2023-03-02T01:02:30.068Z,99918.02
2023-03-02T01:04:57.940Z,99918.89
2023-03-02T01:07:28.333Z,99916.11
2023-03-02T01:09:58.946Z,99914.20
2023-03-02T01:12:26.905Z,99909.69
2023-03-02T01:15:00.988Z,99905.36
2023-03-02T01:17:28.986Z,99910.74
2023-03-02T01:19:57.257Z,99905.55
2023-03-02T01:22:25.300Z,99903.65
2023-03-02T01:24:53.480Z,99901.92
2023-03-02T01:27:22.231Z,99902.60
2023-03-02T01:29:50.818Z,99897.58
2023-03-02T01:32:18.655Z,99893.94
2023-03-02T01:34:46.865Z,99892.73
2023-03-02T01:37:14.709Z,99890.47
2023-03-02T01:39:42.448Z,99887.53
2023-03-02T01:42:10.311Z,99881.30
2023-03-02T01:44:40.252Z,99874.02
2023-03-02T01:47:25.636Z,99870.72
2023-03-02T01:50:26.974Z,99874.17
2023-03-02T01:52:55.446Z,99869.16
2023-03-02T01:55:28.125Z,99867.79
2023-03-02T01:57:58.835Z,99872.10
2023-03-02T02:00:30.034Z,99875.42
2023-03-02T02:03:24.460Z,99875.95
2023-03-02T02:06:10.574Z,99869.36
2023-03-02T02:08:39.625Z,99870.56
2023-03-02T02:11:07.894Z,99874.04
2023-03-02T02:13:36.004Z,99872.82
2023-03-02T02:16:04.426Z,99870.39
2023-03-02T02:18:33.935Z,99870.23
2023-03-02T02:21:02.156Z,99867.80
2023-03-02T02:23:55.121Z,99870.40
2023-03-02T02:26:29.052Z,99869.89
2023-03-02T02:29:08.078Z,99868.14
2023-03-02T02:32:00.749Z,99868.15
2023-03-02T02:34:36.007Z,99866.23
2023-03-02T02:37:20.352Z,99864.69
2023-03-02T02:40:13.961Z,99864.17
2023-03-02T02:42:46.071Z,99864.68
2023-03-02T02:45:23.027Z,99863.31
2023-03-02T02:47:52.526Z,99863.31
2023-03-02T02:50:29.383Z,99857.25
2023-03-02T02:53:27.272Z,99856.39
2023-03-02T02:55:58.295Z,99856.04
2023-03-02T02:58:56.611Z,99855.70
2023-03-02T03:01:26.398Z,99850.66
2023-03-02T03:04:02.032Z,99851.19
2023-03-02T03:06:41.454Z,99850.84
2023-03-02T03:09:13.587Z,99848.59
2023-03-02T03:11:45.347Z,99846.68
2023-03-02T03:14:39.258Z,99841.48
2023-03-02T03:17:12.173Z,99842.35
2023-03-02T03:19:47.815Z,99842.53
2023-03-02T03:22:16.721Z,99846.16
2023-03-02T03:24:48.839Z,99845.64
2023-03-02T03:27:17.008Z,99845.81
2023-03-02T03:29:50.504Z,99842.87
2023-03-02T03:32:19.254Z,99837.85
2023-03-02T03:34:47.268Z,99836.81
2023-03-02T03:37:17.553Z,99838.56
2023-03-02T03:39:45.738Z,99835.44
2023-03-02T03:42:13.636Z,99834.74
2023-03-02T03:44:42.273Z,99834.55
2023-03-02T03:47:10.186Z,99833.87
2023-03-02T03:49:38.233Z,99833.70
2023-03-02T03:52:06.371Z,99830.58
2023-03-02T03:54:34.437Z,99834.05
2023-03-02T03:57:03.150Z,99836.83
2023-03-02T03:59:30.926Z,99832.30
2023-03-02T04:02:00.806Z,99833.01
2023-03-02T04:04:32.503Z,99834.40
2023-03-02T04:07:00.526Z,99833.53
2023-03-02T04:09:29.203Z,99829.20
2023-03-02T04:11:57.891Z,99824.87
2023-03-02T04:14:25.814Z,99821.92
2023-03-02T04:16:54.006Z,99825.55
2023-03-02T04:19:25.385Z,99826.95
2023-03-02T04:21:55.060Z,99826.95
2023-03-02T04:24:24.196Z,99830.76
2023-03-02T04:26:52.108Z,99831.45
2023-03-02T04:29:20.340Z,99830.76
2023-03-02T04:31:48.602Z,99827.81
2023-03-02T04:34:16.758Z,99824.69
2023-03-02T04:36:45.140Z,99820.70
2023-03-02T04:39:15.700Z,99821.41
2023-03-02T04:41:43.876Z,99818.46
2023-03-02T04:44:13.362Z,99821.23
2023-03-02T04:46:45.013Z,99813.77
2023-03-02T04:49:18.306Z,99809.45
2023-03-02T04:51:52.578Z,99803.73
2023-03-02T04:54:26.474Z,99800.80
2023-03-02T04:56:55.200Z,99800.45
2023-03-02T04:59:28.388Z,99797.84
2023-03-02T05:01:59.814Z,99794.20
2023-03-02T05:04:28.486Z,99797.86
2023-03-02T05:06:57.815Z,99798.73
2023-03-02T05:09:30.988Z,99799.23
2023-03-02T05:12:01.140Z,99798.71
2023-03-02T05:14:33.101Z,99805.12
2023-03-02T05:17:01.213Z,99808.41
2023-03-02T05:19:29.210Z,99805.81
2023-03-02T05:21:57.482Z,99808.60
2023-03-02T05:24:25.536Z,99807.71
2023-03-02T05:26:53.880Z,99812.05
2023-03-02T05:29:22.202Z,99814.30
2023-03-02T05:32:12.786Z,99812.05
2023-03-02T05:34:41.128Z,99819.34
2023-03-02T05:37:09.535Z,99820.19
2023-03-02T05:39:37.865Z,99816.04
2023-03-02T05:42:06.284Z,99817.42
2023-03-02T05:44:34.210Z,99818.61
2023-03-02T05:47:02.022Z,99822.25
2023-03-02T05:49:30.293Z,99823.46
2023-03-02T05:51:58.996Z,99819.32
2023-03-02T05:54:26.760Z,99821.05
2023-03-02T05:56:54.494Z,99825.72
2023-03-02T05:59:22.353Z,99827.24
2023-03-02T06:01:50.461Z,99830.36
2023-03-02T06:04:18.912Z,99839.38
2023-03-02T06:06:47.630Z,99835.53
2023-03-02T06:09:22.860Z,99835.52
2023-03-02T06:11:50.902Z,99845.40
2023-03-02T06:14:18.655Z,99845.04
2023-03-02T06:16:49.655Z,99846.73
2023-03-02T06:19:17.996Z,99844.47
2023-03-02T06:21:46.123Z,99845.15
2023-03-02T06:24:13.948Z,99843.90
2023-03-02T06:26:43.749Z,99845.44
2023-03-02T06:29:13.226Z,99841.96
2023-03-02T06:31:41.835Z,99845.05
2023-03-02T06:34:12.986Z,99842.26
2023-03-02T06:36:40.868Z,99846.90
2023-03-02T06:39:15.880Z,99844.79
2023-03-02T06:41:48.663Z,99847.15
2023-03-02T06:44:17.985Z,99851.40
2023-03-02T06:46:46.812Z,99852.38
2023-03-02T06:49:14.647Z,99850.08
2023-03-02T06:51:42.537Z,99852.81
2023-03-02T06:54:10.884Z,99851.91
2023-03-02T06:56:40.738Z,99852.91
2023-03-02T06:59:08.923Z,99854.60
2023-03-02T07:01:37.492Z,99852.83
2023-03-02T07:04:07.577Z,99852.79
2023-03-02T07:06:36.249Z,99859.15
2023-03-02T07:09:04.603Z,99859.42
2023-03-02T07:11:32.759Z,99856.61
2023-03-02T07:14:01.764Z,99852.91
2023-03-02T07:16:31.240Z,99854.76
2023-03-02T07:18:59.938Z,99853.11
2023-03-02T07:21:27.774Z,99848.30
2023-03-02T07:23:55.786Z,99848.72
2023-03-02T07:26:26.546Z,99849.67
2023-03-02T07:28:54.925Z,99850.09
2023-03-02T07:31:23.217Z,99854.00
2023-03-02T07:33:51.224Z,99851.65
2023-03-02T07:36:19.108Z,99848.43
2023-03-02T07:38:47.002Z,99842.93
2023-03-02T07:41:16.932Z,99841.64
2023-03-02T07:43:45.270Z,99839.98
2023-03-02T07:46:13.692Z,99840.77
2023-03-02T07:48:41.449Z,99838.23
2023-03-02T07:51:09.301Z,99839.69
2023-03-02T07:53:37.243Z,99840.09
2023-03-02T07:56:12.527Z,99840.02
2023-03-02T07:58:41.442Z,99837.44
2023-03-02T08:01:09.346Z,99836.95
2023-03-02T08:03:37.149Z,99835.80
2023-03-02T08:06:11.255Z,99835.83
2023-03-02T08:08:39.058Z,99829.77
2023-03-02T08:11:12.500Z,99829.85
2023-03-02T08:13:41.052Z,99826.80
2023-03-02T08:16:10.899Z,99822.55
2023-03-02T08:18:39.800Z,99826.30
2023-03-02T08:21:20.434Z,99821.31
2023-03-02T08:23:49.148Z,99816.33
2023-03-02T08:26:19.118Z,99815.00
2023-03-02T08:28:47.886Z,99814.70
2023-03-02T08:31:16.325Z,99809.54
2023-03-02T08:33:46.061Z,99805.59
2023-03-02T08:36:16.790Z,99806.70
2023-03-02T08:38:45.214Z,99800.84
2023-03-02T08:41:16.984Z,99807.76
2023-03-02T08:43:45.836Z,99810.61
2023-03-02T08:46:18.191Z,99809.64
2023-03-02T08:48:46.785Z,99800.10
2023-03-02T08:51:24.194Z,99799.44
2023-03-02T08:53:57.135Z,99798.65
2023-03-02T08:56:33.855Z,99804.30
2023-03-02T08:59:11.099Z,99801.42
2023-03-02T09:01:40.478Z,99796.60
2023-03-02T09:04:10.373Z,99793.84
2023-03-02T09:06:41.364Z,99793.00
2023-03-02T09:09:11.454Z,99794.98
2023-03-02T09:11:39.762Z,99795.51
2023-03-02T09:14:07.656Z,99795.35
2023-03-02T09:16:35.462Z,99791.15
2023-03-02T09:19:04.166Z,99790.61
2023-03-02T09:21:32.344Z,99792.34
2023-03-02T09:24:00.621Z,99789.02
2023-03-02T09:26:28.415Z,99783.45
2023-03-02T09:28:56.765Z,99783.16
2023-03-02T09:31:24.890Z,99779.90
2023-03-02T09:34:05.585Z,99777.11
2023-03-02T09:36:36.649Z,99774.02
2023-03-02T09:39:09.533Z,99767.05
2023-03-02T09:42:43.478Z,99768.66
2023-03-02T09:45:37.422Z,99766.25
2023-03-02T09:48:16.446Z,99766.98
2023-03-02T09:51:16.801Z,99765.58
2023-03-02T09:54:29.452Z,99763.81
2023-03-02T09:56:59.520Z,99760.67
2023-03-02T09:59:40.065Z,99757.09
2023-03-02T10:02:37.787Z,99756.60
2023-03-02T10:05:14.240Z,99754.42
2023-03-02T10:07:51.948Z,99752.35
2023-03-02T10:10:44.073Z,99750.70
2023-03-02T10:13:44.987Z,99749.05
2023-03-02T10:16:30.957Z,99751.69
2023-03-02T10:19:26.254Z,99750.73
2023-03-02T10:22:03.431Z,99749.40
2023-03-02T10:24:40.146Z,99748.40
2023-03-02T10:27:22.557Z,99746.47
2023-03-02T10:30:06.561Z,99744.76
2023-03-02T10:32:41.839Z,99744.59
2023-03-02T10:35:21.090Z,99736.09
2023-03-02T10:37:52.143Z,99736.52
2023-03-02T10:41:10.142Z,99736.11
2023-03-02T10:43:46.549Z,99729.66
2023-03-02T10:46:17.771Z,99728.29
2023-03-02T10:48:58.730Z,99726.77
2023-03-02T10:51:34.598Z,99729.88
2023-03-02T10:54:10.942Z,99723.67
2023-03-02T10:56:43.091Z,99722.77
2023-03-02T10:59:28.776Z,99716.01
2023-03-02T11:02:13.536Z,99713.82
2023-03-02T11:04:42.066Z,99711.86
2023-03-02T11:07:40.348Z,99709.16
2023-03-02T11:10:19.706Z,99703.27
2023-03-02T11:12:51.804Z,99699.30
2023-03-02T11:15:35.740Z,99698.43
2023-03-02T11:18:03.508Z,99691.50
2023-03-02T11:20:36.205Z,99686.81
2023-03-02T11:23:33.033Z,99680.15
2023-03-02T11:26:21.877Z,99681.11
2023-03-02T11:29:00.054Z,99675.36
2023-03-02T11:31:41.778Z,99672.98
2023-03-02T11:34:28.232Z,99672.03
2023-03-02T11:37:20.098Z,99667.54
2023-03-02T11:39:55.139Z,99661.55
2023-03-02T11:42:45.585Z,99654.90
2023-03-02T11:45:14.006Z,99654.98
2023-03-02T11:47:57.466Z,99647.53
2023-03-02T11:50:38.978Z,99643.79
2023-03-02T11:53:13.916Z,99641.10
2023-03-02T11:55:48.816Z,99635.42
2023-03-02T11:58:21.583Z,99633.04
2023-03-02T12:00:51.051Z,99629.42
2023-03-02T12:03:38.936Z,99628.02
2023-03-02T12:06:26.450Z,99625.96
2023-03-02T12:09:08.855Z,99623.00
2023-03-02T12:11:41.672Z,99615.86
2023-03-02T12:14:39.252Z,99612.15
2023-03-02T12:17:30.837Z,99608.02
2023-03-02T12:20:23.454Z,99603.27
2023-03-02T12:22:51.432Z,99602.55
2023-03-02T12:25:19.131Z,99600.99
2023-03-02T12:27:49.738Z,99595.76
2023-03-02T12:30:24.705Z,99591.08
2023-03-02T12:33:10.860Z,99592.10
2023-03-02T12:35:39.112Z,99589.82
2023-03-02T12:38:29.640Z,99586.42
2023-03-02T12:41:35.824Z,99584.62
2023-03-02T12:44:09.689Z,99580.75
2023-03-02T12:46:40.140Z,99581.54
2023-03-02T12:49:17.317Z,99575.59
2023-03-02T12:52:01.339Z,99577.56
2023-03-02T12:54:34.657Z,99572.98
2023-03-02T12:57:18.033Z,99567.08
2023-03-02T12:59:54.664Z,99563.73
2023-03-02T13:02:25.760Z,99555.97
2023-03-02T13:05:00.258Z,99553.30
2023-03-02T13:07:46.436Z,99549.55
2023-03-02T13:10:36.240Z,99544.48
2023-03-02T13:13:16.911Z,99540.98
2023-03-02T13:15:57.323Z,99544.46
2023-03-02T13:18:31.923Z,99542.91
2023-03-02T13:21:02.554Z,99538.42
2023-03-02T13:23:35.728Z,99538.74
2023-03-02T13:26:05.748Z,99537.32
2023-03-02T13:28:38.435Z,99533.05
2023-03-02T13:31:25.087Z,99531.16
2023-03-02T13:33:55.898Z,99526.05
2023-03-02T13:36:27.203Z,99524.16
2023-03-02T13:38:59.344Z,99523.48
2023-03-02T13:41:33.104Z,99519.17
2023-03-02T13:44:19.957Z,99518.95
2023-03-02T13:46:47.937Z,99514.83
2023-03-02T13:49:33.104Z,99506.35
2023-03-02T13:52:18.285Z,99509.88
2023-03-02T13:54:47.303Z,99506.33
2023-03-02T13:57:20.430Z,99504.63
2023-03-02T13:59:48.889Z,99498.10
2023-03-02T14:02:25.872Z,99495.02
2023-03-02T14:04:54.565Z,99493.67
2023-03-02T14:07:22.736Z,99489.02
2023-03-02T14:09:50.613Z,99485.21
2023-03-02T14:12:30.600Z,99479.77
2023-03-02T14:15:01.993Z,99476.24
2023-03-02T14:17:30.200Z,99477.04
2023-03-02T14:19:58.214Z,99477.03
2023-03-02T14:22:29.677Z,99477.17
2023-03-02T14:24:57.585Z,99475.57
2023-03-02T14:27:29.534Z,99475.06
2023-03-02T14:29:58.508Z,99474.42
2023-03-02T14:32:26.447Z,99473.09
2023-03-02T14:34:57.551Z,99474.73
2023-03-02T14:37:28.522Z,99474.13
2023-03-02T14:39:57.444Z,99470.89
2023-03-02T14:42:25.214Z,99468.10
2023-03-02T14:44:53.536Z,99464.81
2023-03-02T14:47:22.046Z,99461.08
2023-03-02T14:49:49.925Z,99462.14
2023-03-02T14:52:30.828Z,99462.66
2023-03-02T14:55:26.121Z,99457.63
2023-03-02T14:57:58.861Z,99455.55
2023-03-02T15:00:26.825Z,99458.23
2023-03-02T15:02:59.100Z,99455.56
2023-03-02T15:05:30.632Z,99450.17
2023-03-02T15:07:59.487Z,99446.00
2023-03-02T15:10:30.475Z,99449.00
2023-03-02T15:13:01.354Z,99446.84
2023-03-02T15:15:29.842Z,99447.05
2023-03-02T15:17:57.714Z,99443.65
2023-03-02T15:20:25.903Z,99445.37
2023-03-02T15:22:56.549Z,99446.39
2023-03-02T15:25:30.662Z,99445.84
2023-03-02T15:27:59.982Z,99443.23
2023-03-02T15:30:31.248Z,99449.36
2023-03-02T15:33:01.102Z,99452.63
2023-03-02T15:35:41.359Z,99454.13
2023-03-02T15:38:20.257Z,99456.45
2023-03-02T15:40:51.630Z,99456.59
2023-03-02T15:43:24.221Z,99461.23
2023-03-02T15:45:54.242Z,99465.35
2023-03-02T15:48:24.151Z,99462.89
2023-03-02T15:50:59.964Z,99468.81
2023-03-02T15:53:36.109Z,99468.09
2023-03-02T15:56:09.670Z,99468.38
2023-03-02T15:58:37.407Z,99471.48
2023-03-02T16:01:14.819Z,99475.67
2023-03-02T16:03:46.273Z,99477.96
2023-03-02T16:06:18.323Z,99477.23
2023-03-02T16:08:46.134Z,99483.16
2023-03-02T16:11:18.679Z,99482.19
2023-03-02T16:13:49.196Z,99486.70
2023-03-02T16:16:20.553Z,99484.02
2023-03-02T16:19:03.697Z,99489.41
2023-03-02T16:21:34.148Z,99488.54
2023-03-02T16:24:08.503Z,99490.91
2023-03-02T16:26:39.140Z,99492.05
2023-03-02T16:29:09.867Z,99492.85
2023-03-02T16:31:39.300Z,99496.81
2023-03-02T16:34:11.580Z,99499.36
2023-03-02T16:36:46.266Z,99496.95
2023-03-02T16:39:15.376Z,99500.70
2023-03-02T16:41:44.492Z,99496.39
2023-03-02T16:44:16.294Z,99497.00
2023-03-02T16:46:49.439Z,99500.07
2023-03-02T16:49:20.754Z,99492.83
2023-03-02T16:51:48.970Z,99501.45
2023-03-02T16:54:19.571Z,99503.30
2023-03-02T16:56:49.720Z,99502.31
2023-03-02T16:59:20.767Z,99501.52
2023-03-02T17:01:51.194Z,99503.11
2023-03-02T17:04:33.751Z,99505.96
2023-03-02T17:07:01.777Z,99513.34
2023-03-02T17:09:34.554Z,99512.77
2023-03-02T17:12:03.410Z,99513.36
2023-03-02T17:14:31.610Z,99514.19
2023-03-02T17:17:04.261Z,99516.77
2023-03-02T17:19:34.699Z,99520.45
2023-03-02T17:22:04.121Z,99521.30
2023-03-02T17:24:33.211Z,99520.61
2023-03-02T17:27:01.001Z,99520.70
2023-03-02T17:29:28.925Z,99525.49
2023-03-02T17:31:56.776Z,99523.83
2023-03-02T17:34:28.756Z,99528.68
2023-03-02T17:36:57.228Z,99528.62
2023-03-02T17:39:25.853Z,99529.24
2023-03-02T17:41:56.290Z,99526.77
2023-03-02T17:44:24.360Z,99529.58
2023-03-02T17:46:52.762Z,99530.57
2023-03-02T17:49:20.662Z,99527.84
2023-03-02T17:51:48.779Z,99528.45
2023-03-02T17:54:17.518Z,99526.31
2023-03-02T17:56:45.341Z,99524.87
2023-03-02T17:59:14.844Z,99521.68
2023-03-02T18:01:44.116Z,99523.89
2023-03-02T18:04:12.196Z,99522.95
2023-03-02T18:06:40.698Z,99523.98
2023-03-02T18:09:11.515Z,99524.65
2023-03-02T18:11:46.029Z,99525.84
2023-03-02T18:14:19.926Z,99523.81
2023-03-02T18:16:48.705Z,99523.84
2023-03-02T18:19:16.924Z,99527.41
2023-03-02T18:21:45.482Z,99526.44
2023-03-02T18:24:13.280Z,99528.59
2023-03-02T18:26:41.715Z,99532.30
2023-03-02T18:29:09.504Z,99536.95
2023-03-02T18:31:37.535Z,99535.50
2023-03-02T18:34:08.968Z,99530.88
2023-03-02T18:36:37.352Z,99530.96
2023-03-02T18:39:05.311Z,99537.18
2023-03-02T18:41:33.125Z,99535.73
2023-03-02T18:44:01.447Z,99537.02
2023-03-02T18:46:34.751Z,99535.91
2023-03-02T18:49:04.504Z,99532.19
2023-03-02T18:51:32.900Z,99534.17
2023-03-02T18:54:00.980Z,99529.05
2023-03-02T18:56:28.753Z,99530.89
2023-03-02T18:58:56.601Z,99535.52
2023-03-02T19:01:25.001Z,99536.63
2023-03-02T19:03:56.886Z,99537.41
2023-03-02T19:06:25.006Z,99535.88
2023-03-02T19:08:52.780Z,99535.59
2023-03-02T19:11:20.649Z,99535.23
2023-03-02T19:13:48.468Z,99533.18
2023-03-02T19:16:18.455Z,99534.26
2023-03-02T19:18:47.150Z,99538.25
2023-03-02T19:21:14.911Z,99535.27
2023-03-02T19:23:44.497Z,99536.39
2023-03-02T19:26:13.505Z,99535.06
2023-03-02T19:28:41.847Z,99537.73
2023-03-02T19:31:12.397Z,99539.34
2023-03-02T19:33:42.297Z,99540.61
2023-03-02T19:36:10.138Z,99539.27
2023-03-02T19:38:41.545Z,99542.09
2023-03-02T19:41:13.243Z,99537.45
2023-03-02T19:43:42.862Z,99540.30
2023-03-02T19:46:11.337Z,99537.05
2023-03-02T19:48:39.919Z,99530.65
2023-03-02T19:51:09.247Z,99528.80
2023-03-02T19:53:38.518Z,99527.31
2023-03-02T19:56:12.942Z,99524.27
2023-03-02T19:58:49.969Z,99523.18
2023-03-02T20:01:24.813Z,99526.79
2023-03-02T20:03:53.242Z,99523.75
2023-03-02T20:06:23.206Z,99525.91
2023-03-02T20:08:52.219Z,99525.06
2023-03-02T20:11:20.001Z,99523.16
2023-03-02T20:13:48.330Z,99521.63
2023-03-02T20:16:16.846Z,99520.60
2023-03-02T20:18:45.683Z,99519.38
2023-03-02T20:21:13.458Z,99513.99
2023-03-02T20:23:41.902Z,99515.56
2023-03-02T20:26:13.671Z,99513.67
2023-03-02T20:28:41.406Z,99510.92
2023-03-02T20:31:12.968Z,99509.76
2023-03-02T20:33:47.745Z,99507.52
2023-03-02T20:36:21.246Z,99508.07
2023-03-02T20:39:00.456Z,99502.55
2023-03-02T20:41:28.656Z,99499.27
2023-03-02T20:43:57.019Z,99497.90
2023-03-02T20:46:31.583Z,99496.02
2023-03-02T20:49:00.140Z,99491.52
2023-03-02T20:51:28.607Z,99493.27
2023-03-02T20:53:56.847Z,99490.51
2023-03-02T20:56:25.201Z,99487.55
2023-03-02T20:58:53.664Z,99483.65
2023-03-02T21:01:23.768Z,99482.18
2023-03-02T21:03:52.408Z,99480.26
2023-03-02T21:06:20.248Z,99477.83
2023-03-02T21:08:48.741Z,99474.86
2023-03-02T21:11:20.881Z,99472.27
2023-03-02T21:13:49.547Z,99469.52
2023-03-02T21:16:21.942Z,99473.06
2023-03-02T21:18:50.906Z,99478.59
2023-03-02T21:21:20.252Z,99474.85
2023-03-02T21:23:51.438Z,99469.81
2023-03-02T21:26:19.425Z,99468.41
2023-03-02T21:28:48.024Z,99459.75
2023-03-02T21:31:18.289Z,99455.81
2023-03-02T21:33:46.275Z,99453.94
2023-03-02T21:36:22.796Z,99453.52
2023-03-02T21:38:52.390Z,99455.84
2023-03-02T21:41:21.481Z,99455.52
2023-03-02T21:43:49.715Z,99453.98
2023-03-02T21:46:22.023Z,99449.80
2023-03-02T21:48:51.387Z,99446.02
2023-03-02T21:51:20.169Z,99441.18
2023-03-02T21:53:48.478Z,99435.70
2023-03-02T21:56:22.023Z,99436.12
2023-03-02T21:58:51.532Z,99431.13
2023-03-02T22:01:19.860Z,99429.41
2023-03-02T22:03:48.353Z,99429.61
2023-03-02T22:06:26.066Z,99424.77
2023-03-02T22:08:55.695Z,99425.16
2023-03-02T22:11:29.960Z,99419.11
2023-03-02T22:14:00.453Z,99419.16
2023-03-02T22:16:35.195Z,99417.48
2023-03-02T22:19:20.329Z,99417.17
2023-03-02T22:21:49.589Z,99414.91
2023-03-02T22:24:23.959Z,99413.70
2023-03-02T22:27:19.641Z,99415.63
2023-03-02T22:29:50.260Z,99408.55
2023-03-02T22:32:24.197Z,99408.77
2023-03-02T22:34:54.496Z,99407.96
2023-03-02T22:37:40.945Z,99407.83
2023-03-02T22:40:30.989Z,99407.17
2023-03-02T22:43:11.757Z,99406.89
2023-03-02T22:45:41.306Z,99408.20
2023-03-02T22:48:18.239Z,99408.39
2023-03-02T22:50:49.730Z,99411.16
2023-03-02T22:53:25.423Z,99407.36
2023-03-02T22:56:04.303Z,99403.09
2023-03-02T22:58:42.708Z,99407.65
2023-03-02T23:01:27.685Z,99402.19
2023-03-02T23:04:13.963Z,99399.73
2023-03-02T23:06:46.391Z,99392.65
2023-03-02T23:09:17.548Z,99388.33
2023-03-02T23:11:45.784Z,99392.33
2023-03-02T23:14:24.892Z,99387.33
2023-03-02T23:17:00.212Z,99387.52
2023-03-02T23:19:31.193Z,99385.69
2023-03-02T23:21:59.427Z,99378.96
2023-03-02T23:24:27.721Z,99380.38
2023-03-02T23:26:55.567Z,99379.52
2023-03-02T23:29:23.382Z,99383.88
2023-03-02T23:31:51.212Z,99383.92
2023-03-02T23:34:19.111Z,99378.98
2023-03-02T23:36:46.909Z,99377.98
2023-03-02T23:39:15.840Z,99384.28
2023-03-02T23:41:43.854Z,99381.11
2023-03-02T23:44:11.650Z,99380.73
2023-03-02T23:46:39.399Z,99384.55
2023-03-02T23:49:07.245Z,99380.45
2023-03-02T23:51:35.179Z,99378.59
2023-03-02T23:54:04.815Z,99375.69
2023-03-02T23:56:32.880Z,99373.42
2023-03-02T23:59:00.862Z,99373.95
